Time;durP1;ratioP1;P1;durP2;ratioP2;P2;SDS_P1;SDS_P2;PMS_P1;PMS_P2;Temp;Humidity;BMP_temperature;BMP_pressure;BME280_temperature;BME280_humidity;BME280_pressure;Samples;Min_cycle;Max_cycle;Signal;HPM_P1;HPM_P2
2021/03/15 00:01:30;;;;;;;;;;;8.50;99.90;;;;;;5056725;28;19908;-72
2021/03/15 00:03:55;;;;;;;;;;;8.50;99.90;;;;;;5057623;28;19904;-73
2021/03/15 00:06:21;;;;;;;;;;;8.50;99.90;;;;;;5054142;28;19931;-69
2021/03/15 00:08:47;;;;;;;;;;;8.40;99.90;;;;;;5053681;28;20358;-73
2021/03/15 00:11:12;;;;;;;;;;;8.50;99.90;;;;;;5053896;28;19959;-68
2021/03/15 00:13:38;;;;;;;;;;;8.50;99.90;;;;;;5053083;28;19999;-70
2021/03/15 00:16:04;;;;;;;;;;;8.50;99.90;;;;;;5053048;28;20375;-71
2021/03/15 00:18:30;;;;;;;;;;;8.40;99.90;;;;;;5035465;28;19905;-72
2021/03/15 00:20:55;;;;;;;;;;;8.40;99.90;;;;;;5053647;28;19971;-71
2021/03/15 00:23:21;;;;;;;;;;;8.40;99.90;;;;;;5058043;28;20408;-70
2021/03/15 00:25:47;;;;;;;;;;;8.40;99.90;;;;;;5063079;28;19912;-69
2021/03/15 00:28:12;;;;;;;;;;;8.40;99.90;;;;;;5053741;28;20362;-70
2021/03/15 00:30:38;;;;;;;;;;;8.40;99.90;;;;;;5057979;28;19912;-71
2021/03/15 00:33:04;;;;;;;;;;;8.40;99.90;;;;;;5061607;28;19905;-70
2021/03/15 00:35:30;;;;;;;;;;;8.50;99.90;;;;;;5053237;28;19913;-70
2021/03/15 00:37:55;;;;;;;;;;;8.50;99.90;;;;;;5072423;28;19911;-70
2021/03/15 00:40:22;;;;;;;;;;;8.50;99.90;;;;;;5073141;28;20337;-70
2021/03/15 00:42:48;;;;;;;;;;;8.40;99.90;;;;;;5073462;28;19908;-70
2021/03/15 00:45:14;;;;;;;;;;;8.50;99.90;;;;;;5073276;28;20387;-70
2021/03/15 00:47:40;;;;;;;;;;;8.50;99.90;;;;;;5072915;28;19904;-70
2021/03/15 00:50:07;;;;;;;;;;;8.40;99.90;;;;;;5072135;28;19992;-70
2021/03/15 00:52:32;;;;;;;;;;;8.30;99.90;;;;;;5072920;28;19961;-70
2021/03/15 00:54:58;;;;;;;;;;;8.30;99.90;;;;;;5072485;28;20324;-71
2021/03/15 00:57:23;;;;;;;;;;;8.20;99.90;;;;;;5072884;28;19915;-70
2021/03/15 00:59:49;;;;;;;;;;;8.20;99.90;;;;;;5073432;28;19904;-69
2021/03/15 01:02:14;;;;;;;;;;;8.20;99.90;;;;;;5072326;28;20358;-70
2021/03/15 01:04:40;;;;;;;;;;;8.20;99.90;;;;;;5072719;28;19904;-69
2021/03/15 01:07:06;;;;;;;;;;;8.20;99.90;;;;;;5072631;28;20354;-69
2021/03/15 01:09:32;;;;;;;;;;;8.20;99.90;;;;;;5062401;28;19921;-68
2021/03/15 01:11:57;;;;;;;;;;;8.30;99.90;;;;;;5060879;28;20317;-69
2021/03/15 01:14:23;;;;;;;;;;;8.40;99.90;;;;;;5058721;28;20022;-70
2021/03/15 01:16:48;;;;;;;;;;;8.40;99.90;;;;;;5061061;28;20351;-70
2021/03/15 01:19:14;;;;;;;;;;;8.40;99.90;;;;;;5062050;28;19966;-71
2021/03/15 01:21:40;;;;;;;;;;;8.30;99.90;;;;;;5062563;28;20342;-69
2021/03/15 01:24:05;;;;;;;;;;;8.40;99.90;;;;;;5061642;28;20298;-70
2021/03/15 01:26:31;;;;;;;;;;;8.40;99.90;;;;;;5060015;28;19995;-70
2021/03/15 01:28:59;;;;;;;;;;;8.40;99.90;;;;;;5054405;28;19908;-71
2021/03/15 01:31:24;;;;;;;;;;;8.30;99.90;;;;;;5063748;28;19911;-71
2021/03/15 01:33:50;;;;;;;;;;;8.40;99.90;;;;;;5054527;28;19917;-69
2021/03/15 01:36:16;;;;;;;;;;;8.30;99.90;;;;;;5052662;28;19954;-70
2021/03/15 01:38:41;;;;;;;;;;;8.30;99.90;;;;;;5051874;28;20305;-70
2021/03/15 01:41:08;;;;;;;;;;;8.30;99.90;;;;;;5034937;28;19915;-69
2021/03/15 01:43:34;;;;;;;;;;;8.30;99.90;;;;;;5052503;28;19905;-70
2021/03/15 01:45:59;;;;;;;;;;;8.30;99.90;;;;;;5051385;28;19930;-69
2021/03/15 01:48:25;;;;;;;;;;;8.40;99.90;;;;;;5052736;28;19944;-70
2021/03/15 01:50:51;;;;;;;;;;;8.20;99.90;;;;;;5052411;28;20370;-70
2021/03/15 01:53:17;;;;;;;;;;;8.20;99.90;;;;;;5051415;28;19905;-70
2021/03/15 01:55:44;;;;;;;;;;;8.20;99.90;;;;;;5052102;28;19913;-70
2021/03/15 01:58:09;;;;;;;;;;;8.10;99.90;;;;;;5060052;28;20269;-70
2021/03/15 02:00:35;;;;;;;;;;;8.20;99.90;;;;;;5059353;28;19905;-69
2021/03/15 02:03:02;;;;;;;;;;;8.20;99.90;;;;;;5061567;28;19904;-71
2021/03/15 02:05:28;;;;;;;;;;;8.00;99.90;;;;;;5076314;28;19912;-72
2021/03/15 02:07:53;;;;;;;;;;;8.10;99.90;;;;;;5075548;28;19918;-71
2021/03/15 02:10:19;;;;;;;;;;;8.20;99.90;;;;;;5058247;28;20353;-72
2021/03/15 02:13:05;;;;;;;;;;;8.20;99.90;;;;;;5075888;28;19908;-71
2021/03/15 02:15:49;;;;;;;;;;;8.20;99.90;;;;;;5075196;28;20354;-70
2021/03/15 02:18:17;;;;;;;;;;;8.00;99.90;;;;;;5076168;28;20265;-70
2021/03/15 02:20:42;;;;;;;;;;;8.10;99.90;;;;;;5075789;28;19987;-72
2021/03/15 02:23:16;;;;;;;;;;;8.00;99.90;;;;;;5075467;28;19912;-73
2021/03/15 02:25:42;;;;;;;;;;;8.10;99.90;;;;;;5075900;28;19904;-72
2021/03/15 02:28:07;;;;;;;;;;;8.10;99.90;;;;;;5075632;28;19914;-73
2021/03/15 02:30:48;;;;;;;;;;;8.10;99.90;;;;;;5074969;28;19904;-70
2021/03/15 02:33:32;;;;;;;;;;;7.90;99.90;;;;;;5075545;28;19991;-72
2021/03/15 02:35:59;;;;;;;;;;;8.00;99.90;;;;;;5075257;28;20267;-74
2021/03/15 02:38:25;;;;;;;;;;;8.10;99.90;;;;;;5054212;28;20215;-72
2021/03/15 02:40:55;;;;;;;;;;;8.10;99.90;;;;;;5074757;28;19905;-71
2021/03/15 02:43:23;;;;;;;;;;;8.00;99.90;;;;;;5075492;28;19915;-72
2021/03/15 02:45:55;;;;;;;;;;;8.10;99.90;;;;;;5053872;28;19905;-71
2021/03/15 02:48:21;;;;;;;;;;;8.10;99.90;;;;;;5065488;28;20376;-72
2021/03/15 02:50:49;;;;;;;;;;;8.10;99.90;;;;;;5054691;28;19909;-70
2021/03/15 02:53:16;;;;;;;;;;;8.00;99.90;;;;;;5064015;28;19911;-71
2021/03/15 02:55:42;;;;;;;;;;;7.90;99.90;;;;;;5055552;28;20603;-71
2021/03/15 02:58:08;;;;;;;;;;;7.90;99.90;;;;;;5056197;28;19909;-70
2021/03/15 03:00:34;;;;;;;;;;;7.80;99.90;;;;;;5055921;28;19912;-73
2021/03/15 03:03:00;;;;;;;;;;;7.90;99.90;;;;;;5055324;28;19931;-72
2021/03/15 03:05:26;;;;;;;;;;;7.80;99.90;;;;;;5056390;28;19947;-71
2021/03/15 03:07:53;;;;;;;;;;;7.60;99.90;;;;;;5056172;28;19940;-69
2021/03/15 03:10:22;;;;;;;;;;;7.70;99.90;;;;;;5055542;28;19950;-70
2021/03/15 03:12:49;;;;;;;;;;;7.70;99.90;;;;;;5054667;28;19908;-70
2021/03/15 03:15:16;;;;;;;;;;;7.60;99.90;;;;;;5037649;28;20606;-69
2021/03/15 03:17:43;;;;;;;;;;;7.70;99.90;;;;;;5062150;28;19974;-70
2021/03/15 03:20:11;;;;;;;;;;;7.70;99.90;;;;;;5055730;28;19905;-69
2021/03/15 03:22:40;;;;;;;;;;;7.60;99.90;;;;;;5061293;28;19908;-70
2021/03/15 03:25:08;;;;;;;;;;;7.50;99.90;;;;;;5055159;28;19905;-70
2021/03/15 03:27:34;;;;;;;;;;;7.60;99.90;;;;;;5037550;28;20310;-70
2021/03/15 03:30:00;;;;;;;;;;;7.60;99.90;;;;;;5056495;28;20277;-71
2021/03/15 03:32:26;;;;;;;;;;;7.60;99.90;;;;;;5075222;28;19904;-71
2021/03/15 03:34:53;;;;;;;;;;;7.60;99.90;;;;;;5045424;28;20331;-68
2021/03/15 03:37:19;;;;;;;;;;;7.60;99.90;;;;;;5059755;28;19918;-71
2021/03/15 03:39:44;;;;;;;;;;;7.60;99.90;;;;;;5074854;28;19950;-70
2021/03/15 03:42:10;;;;;;;;;;;7.60;99.90;;;;;;5070158;28;19951;-71
2021/03/15 03:44:35;;;;;;;;;;;7.70;99.90;;;;;;5075044;28;19904;-70
2021/03/15 03:47:01;;;;;;;;;;;7.70;99.90;;;;;;5074896;28;20011;-71
2021/03/15 03:49:27;;;;;;;;;;;7.70;99.90;;;;;;5054027;28;20384;-71
2021/03/15 03:52:00;;;;;;;;;;;7.80;99.90;;;;;;5067203;28;19974;-71
2021/03/15 03:54:46;;;;;;;;;;;7.80;99.90;;;;;;5069855;28;19908;-72
2021/03/15 03:57:23;;;;;;;;;;;7.80;99.90;;;;;;5068084;28;19923;-71
2021/03/15 03:59:50;;;;;;;;;;;7.70;99.90;;;;;;5074472;28;20374;-71
2021/03/15 04:02:18;;;;;;;;;;;7.60;99.90;;;;;;5074926;28;19904;-71
2021/03/15 04:04:45;;;;;;;;;;;7.60;99.90;;;;;;5074757;28;20026;-71
2021/03/15 04:07:12;;;;;;;;;;;7.70;99.90;;;;;;5074581;28;20342;-70
2021/03/15 04:09:38;;;;;;;;;;;7.70;99.90;;;;;;5074699;28;19952;-70
2021/03/15 04:12:08;;;;;;;;;;;7.60;99.90;;;;;;5074776;28;20342;-70
2021/03/15 04:14:36;;;;;;;;;;;7.60;99.90;;;;;;5074208;28;20565;-70
2021/03/15 04:17:03;;;;;;;;;;;7.60;99.90;;;;;;5066403;28;19920;-69
2021/03/15 04:19:32;;;;;;;;;;;7.60;99.90;;;;;;5058462;28;20385;-69
2021/03/15 04:22:01;;;;;;;;;;;7.60;99.90;;;;;;5067096;28;19912;-70
2021/03/15 04:24:27;;;;;;;;;;;7.60;99.90;;;;;;5053311;28;19996;-70
2021/03/15 04:26:53;;;;;;;;;;;7.60;99.90;;;;;;5054073;28;19904;-70
2021/03/15 04:29:19;;;;;;;;;;;7.60;99.90;;;;;;5054268;28;19935;-71
2021/03/15 04:31:45;;;;;;;;;;;7.60;99.90;;;;;;5068104;28;19905;-69
2021/03/15 04:34:10;;;;;;;;;;;7.60;99.90;;;;;;5054234;28;20007;-70
2021/03/15 04:36:36;;;;;;;;;;;7.80;99.90;;;;;;5054012;28;19992;-70
2021/03/15 04:39:02;;;;;;;;;;;7.70;99.90;;;;;;5053791;28;19905;-70
2021/03/15 04:41:28;;;;;;;;;;;7.70;99.90;;;;;;5036071;28;19909;-71
2021/03/15 04:43:54;;;;;;;;;;;7.70;99.90;;;;;;5053730;28;20359;-71
2021/03/15 04:46:20;;;;;;;;;;;7.70;99.90;;;;;;5053995;28;19904;-70
2021/03/15 04:48:47;;;;;;;;;;;7.60;99.90;;;;;;5053652;28;19905;-71
2021/03/15 04:51:15;;;;;;;;;;;7.60;99.90;;;;;;5053621;28;19913;-70
2021/03/15 04:53:41;;;;;;;;;;;7.60;99.90;;;;;;5053598;28;19904;-71
2021/03/15 04:56:09;;;;;;;;;;;7.70;99.90;;;;;;5053230;28;20034;-71
2021/03/15 04:58:37;;;;;;;;;;;7.70;99.90;;;;;;5053534;28;20366;-70
2021/03/15 05:01:03;;;;;;;;;;;7.70;99.90;;;;;;5053496;28;19912;-71
2021/03/15 05:03:29;;;;;;;;;;;7.60;99.90;;;;;;5058393;28;19912;-71
2021/03/15 05:05:56;;;;;;;;;;;7.50;99.90;;;;;;5066840;28;19908;-70
2021/03/15 05:08:28;;;;;;;;;;;7.50;99.90;;;;;;5064756;28;19926;-70
2021/03/15 05:10:54;;;;;;;;;;;7.40;99.90;;;;;;5059864;28;20270;-70
2021/03/15 05:13:21;;;;;;;;;;;7.50;99.90;;;;;;5056885;28;19905;-70
2021/03/15 05:15:47;;;;;;;;;;;;;;;;;;5053177;28;19966;-69
2021/03/15 05:18:13;;;;;;;;;;;7.20;99.90;;;;;;5053853;28;19948;-71
2021/03/15 05:20:40;;;;;;;;;;;;;;;;;;5035646;28;19905;-71
2021/03/15 05:23:09;;;;;;;;;;;7.20;99.90;;;;;;5056913;28;20354;-71
2021/03/15 05:25:37;;;;;;;;;;;7.20;99.90;;;;;;5059304;28;20270;-71
2021/03/15 05:28:04;;;;;;;;;;;7.30;99.90;;;;;;5041420;28;20480;-71
2021/03/15 05:30:30;;;;;;;;;;;7.30;99.90;;;;;;5057019;28;20306;-68
2021/03/15 05:32:56;;;;;;;;;;;7.20;99.90;;;;;;5063435;28;19911;-70
2021/03/15 05:35:23;;;;;;;;;;;7.00;99.90;;;;;;5035206;28;19913;-70
2021/03/15 05:37:49;;;;;;;;;;;7.10;99.90;;;;;;5058613;28;19917;-73
2021/03/15 05:40:15;;;;;;;;;;;;;;;;;;5053199;28;20302;-74
2021/03/15 05:43:01;;;;;;;;;;;6.90;99.90;;;;;;5053804;28;19942;-70
2021/03/15 05:45:45;;;;;;;;;;;7.10;99.90;;;;;;5016151;28;20326;-71
2021/03/15 05:48:20;;;;;;;;;;;7.10;99.90;;;;;;5052990;28;19951;-70
2021/03/15 05:50:48;;;;;;;;;;;7.00;99.90;;;;;;5044601;28;19924;-71
2021/03/15 05:53:17;;;;;;;;;;;6.90;99.90;;;;;;5051388;28;19905;-70
2021/03/15 05:56:01;;;;;;;;;;;7.00;99.90;;;;;;5051696;28;20007;-69
2021/03/15 05:58:29;;;;;;;;;;;6.90;99.90;;;;;;5052464;28;19916;-71
2021/03/15 06:01:17;;;;;;;;;;;6.80;99.90;;;;;;5052991;28;19954;-70
2021/03/15 06:03:57;;;;;;;;;;;6.90;99.90;;;;;;5053100;28;19905;-71
2021/03/15 06:06:23;;;;;;;;;;;6.80;99.90;;;;;;5052966;28;19905;-69
2021/03/15 06:08:55;;;;;;;;;;;6.80;99.90;;;;;;5053112;28;19905;-70
2021/03/15 06:11:26;;;;;;;;;;;6.70;99.90;;;;;;5052914;28;19911;-71
2021/03/15 06:13:52;;;;;;;;;;;6.60;99.90;;;;;;5052733;28;19913;-70
2021/03/15 06:16:17;;;;;;;;;;;6.40;99.90;;;;;;5052539;28;20368;-71
2021/03/15 06:18:43;;;;;;;;;;;6.40;99.90;;;;;;5052335;28;19911;-70
2021/03/15 06:21:10;;;;;;;;;;;6.30;99.90;;;;;;5052779;28;19911;-71
2021/03/15 06:23:36;;;;;;;;;;;6.20;99.90;;;;;;5053055;28;19948;-70
2021/03/15 06:26:02;;;;;;;;;;;6.10;99.90;;;;;;5052683;28;19963;-70
2021/03/15 06:28:27;;;;;;;;;;;5.90;99.90;;;;;;5052750;28;19912;-70
2021/03/15 06:30:53;;;;;;;;;;;5.90;99.90;;;;;;5059702;28;20313;-70
2021/03/15 06:33:20;;;;;;;;;;;6.00;99.90;;;;;;5059285;28;19936;-69
2021/03/15 06:35:51;;;;;;;;;;;5.90;99.90;;;;;;5052280;28;19928;-68
2021/03/15 06:38:17;;;;;;;;;;;6.00;99.90;;;;;;5052554;28;19995;-70
2021/03/15 06:40:43;;;;;;;;;;;5.90;99.90;;;;;;5052206;28;19940;-69
2021/03/15 06:43:14;;;;;;;;;;;6.00;99.90;;;;;;5045074;28;19947;-70
2021/03/15 06:45:42;;;;;;;;;;;5.90;99.90;;;;;;5072796;28;20007;-69
2021/03/15 06:48:08;;;;;;;;;;;5.90;99.90;;;;;;5053699;28;19953;-70
2021/03/15 06:50:33;;;;;;;;;;;5.80;99.90;;;;;;5071406;28;19909;-70
2021/03/15 06:53:00;;;;;;;;;;;5.80;99.90;;;;;;5076289;28;19904;-68
2021/03/15 06:55:29;;;;;;;;;;;9.00;99.90;;;;;;5057942;28;19912;-69
2021/03/15 06:57:54;;;;;;;;;;;5.70;99.90;;;;;;5076252;28;19904;-69
2021/03/15 07:00:21;;;;;;;;;;;5.70;99.90;;;;;;5076276;28;19912;-69
2021/03/15 07:03:00;;;;;;;;;;;5.70;99.90;;;;;;5075866;28;19947;-70
2021/03/15 07:05:27;;;;;;;;;;;5.80;99.90;;;;;;5076453;28;20342;-69
2021/03/15 07:07:54;;;;;;;;;;;5.70;99.90;;;;;;5075597;28;19936;-70
2021/03/15 07:10:19;;;;;;;;;;;;;;;;;;5075926;28;20332;-70
2021/03/15 07:12:45;;;;;;;;;;;5.50;99.90;;;;;;5075997;28;19940;-70
2021/03/15 07:15:11;;;;;;;;;;;5.40;99.90;;;;;;5075387;28;19924;-69
2021/03/15 07:17:37;;;;;;;;;;;5.20;99.90;;;;;;5075954;28;19991;-70
2021/03/15 07:20:04;;;;;;;;;;;5.20;99.90;;;;;;5075710;28;20337;-71
2021/03/15 07:22:29;;;;;;;;;;;5.20;99.90;;;;;;5075395;28;19999;-69
2021/03/15 07:25:03;;;;;;;;;;;5.20;99.90;;;;;;5075434;28;19944;-70
2021/03/15 07:27:29;;;;;;;;;;;;;;;;;;5075632;28;19915;-70
2021/03/15 07:29:54;;;;;;;;;;;5.10;99.90;;;;;;5074893;28;19908;-70
2021/03/15 07:32:37;;;;;;;;;;;5.10;99.90;;;;;;5055916;28;19916;-70
2021/03/15 07:35:18;;;;;;;;;;;5.20;99.90;;;;;;5055553;28;19909;-71
2021/03/15 07:37:44;;;;;;;;;;;5.00;99.90;;;;;;5055067;28;19915;-70
2021/03/15 07:40:10;;;;;;;;;;;5.00;99.90;;;;;;5055430;28;20406;-69
2021/03/15 07:42:39;;;;;;;;;;;5.00;99.90;;;;;;5054979;28;19908;-69
2021/03/15 07:45:05;;;;;;;;;;;5.00;99.90;;;;;;5054721;28;19929;-70
2021/03/15 07:47:30;;;;;;;;;;;5.10;99.90;;;;;;5054704;28;19905;-69
2021/03/15 07:49:57;;;;;;;;;;;5.00;99.90;;;;;;5054594;28;19952;-69
2021/03/15 07:52:38;;;;;;;;;;;5.00;99.90;;;;;;5054659;28;19905;-70
2021/03/15 07:55:04;;;;;;;;;;;5.00;99.90;;;;;;5054954;28;19955;-69
2021/03/15 07:57:32;;;;;;;;;;;4.90;99.90;;;;;;5054286;28;20306;-69
2021/03/15 07:59:58;;;;;;;;;;;5.00;99.90;;;;;;5054995;28;19912;-69
2021/03/15 08:02:28;;;;;;;;;;;4.90;99.90;;;;;;5054438;28;19909;-69
2021/03/15 08:04:54;;;;;;;;;;;4.90;99.90;;;;;;5054338;28;20378;-69
2021/03/15 08:07:21;;;;;;;;;;;4.80;99.90;;;;;;5054469;28;20274;-70
2021/03/15 08:09:48;;;;;;;;;;;4.80;99.90;;;;;;5054639;28;20378;-69
2021/03/15 08:12:14;;;;;;;;;;;;;;;;;;5054149;28;19908;-70
2021/03/15 08:14:42;;;;;;;;;;;4.80;99.90;;;;;;5054430;28;19908;-69
2021/03/15 08:17:08;;;;;;;;;;;4.80;99.90;;;;;;5054761;28;20367;-69
2021/03/15 08:19:36;;;;;;;;;;;4.80;99.90;;;;;;5054069;28;19905;-68
2021/03/15 08:22:02;;;;;;;;;;;4.90;99.90;;;;;;5054215;28;19999;-69
2021/03/15 08:24:28;;;;;;;;;;;4.80;99.90;;;;;;5054129;28;19955;-69
2021/03/15 08:26:55;;;;;;;;;;;4.80;99.90;;;;;;5053962;28;19913;-69
2021/03/15 08:29:20;;;;;;;;;;;4.90;99.90;;;;;;5054686;28;19905;-69
2021/03/15 08:31:46;;;;;;;;;;;4.90;99.90;;;;;;5067746;28;19905;-69
2021/03/15 08:34:13;;;;;;;;;;;4.80;99.90;;;;;;5053919;28;19913;-73
2021/03/15 08:36:39;;;;;;;;;;;4.80;99.90;;;;;;5053997;28;20369;-70
2021/03/15 08:39:25;;;;;;;;;;;4.80;99.90;;;;;;5053619;28;19928;-73
2021/03/15 08:42:11;;;;;;;;;;;4.90;99.90;;;;;;5040317;28;19905;-69
2021/03/15 08:44:37;;;;;;;;;;;4.90;99.90;;;;;;5052923;28;19905;-70
2021/03/15 08:47:03;;;;;;;;;;;4.90;99.90;;;;;;5053681;28;19913;-69
2021/03/15 08:49:30;;;;;;;;;;;4.90;99.90;;;;;;5053647;28;20274;-70
2021/03/15 08:51:56;;;;;;;;;;;4.90;99.90;;;;;;5043687;28;19915;-70
2021/03/15 08:54:38;;;;;;;;;;;4.90;99.90;;;;;;5061558;28;19912;-70
2021/03/15 08:57:05;;;;;;;;;;;5.00;99.90;;;;;;5061287;28;19909;-71
2021/03/15 08:59:32;;;;;;;;;;;5.10;99.90;;;;;;5061747;28;19904;-73
2021/03/15 09:02:00;;;;;;;;;;;5.10;99.90;;;;;;5062123;28;20472;-70
2021/03/15 09:04:40;;;;;;;;;;;5.40;99.90;;;;;;5064262;28;20370;-68
2021/03/15 09:07:24;;;;;;;;;;;5.20;99.90;;;;;;5062699;28;20328;-69
2021/03/15 09:09:50;;;;;;;;;;;5.20;99.90;;;;;;5060159;28;19936;-71
2021/03/15 09:12:16;;;;;;;;;;;5.20;99.90;;;;;;5047938;28;20412;-69
2021/03/15 09:14:43;;;;;;;;;;;5.30;99.90;;;;;;5063391;28;19917;-70
2021/03/15 09:17:15;;;;;;;;;;;5.20;99.90;;;;;;5062261;28;19923;-70
2021/03/15 09:19:41;;;;;;;;;;;5.30;99.90;;;;;;5059409;28;19916;-72
2021/03/15 09:22:15;;;;;;;;;;;5.40;99.90;;;;;;5052653;28;19905;-70
2021/03/15 09:24:42;;;;;;;;;;;5.40;99.90;;;;;;5052213;28;20270;-70
2021/03/15 09:27:22;;;;;;;;;;;5.40;99.90;;;;;;5056031;28;19913;-70
2021/03/15 09:29:55;;;;;;;;;;;5.50;99.90;;;;;;5053013;28;19909;-71
2021/03/15 09:32:31;;;;;;;;;;;5.60;99.90;;;;;;5067366;28;19991;-68
2021/03/15 09:34:58;;;;;;;;;;;5.60;99.90;;;;;;5035064;28;19919;-69
2021/03/15 09:37:24;;;;;;;;;;;5.70;99.90;;;;;;5053109;28;19955;-71
2021/03/15 09:39:50;;;;;;;;;;;5.60;99.90;;;;;;5052830;28;19912;-69
2021/03/15 09:42:17;;;;;;;;;;;5.60;99.90;;;;;;5052019;28;20359;-72
2021/03/15 09:44:42;;;;;;;;;;;5.60;99.90;;;;;;5052811;28;19905;-70
2021/03/15 09:47:08;;;;;;;;;;;5.60;99.90;;;;;;5053318;28;20253;-70
2021/03/15 09:49:38;;;;;;;;;;;5.60;99.90;;;;;;5052686;28;19905;-73
2021/03/15 09:52:15;;;;;;;;;;;5.50;99.90;;;;;;5052918;28;19904;-69
2021/03/15 09:54:42;;;;;;;;;;;5.50;99.90;;;;;;5052987;28;19913;-70
2021/03/15 09:57:08;;;;;;;;;;;5.50;99.90;;;;;;5052210;28;19923;-71
2021/03/15 09:59:34;;;;;;;;;;;5.40;99.90;;;;;;5052938;28;19904;-71
2021/03/15 10:01:59;;;;;;;;;;;5.40;99.90;;;;;;5052788;28;20388;-70
2021/03/15 10:04:38;;;;;;;;;;;5.40;99.90;;;;;;5058698;28;19995;-69
2021/03/15 10:07:10;;;;;;;;;;;5.40;99.90;;;;;;5062322;28;19911;-69
2021/03/15 10:09:40;;;;;;;;;;;5.30;99.90;;;;;;5060850;28;19955;-72
2021/03/15 10:12:07;;;;;;;;;;;5.30;99.90;;;;;;5037718;28;19940;-71
2021/03/15 10:14:33;;;;;;;;;;;5.30;99.90;;;;;;5050959;28;20223;-69
2021/03/15 10:17:03;;;;;;;;;;;5.30;99.90;;;;;;5050469;28;19978;-70
2021/03/15 10:19:29;;;;;;;;;;;5.30;99.90;;;;;;5051423;28;19905;-70
2021/03/15 10:22:08;;;;;;;;;;;5.30;99.90;;;;;;5037868;28;20011;-69
2021/03/15 10:24:34;;;;;;;;;;;5.30;99.90;;;;;;5056216;28;19905;-71
2021/03/15 10:27:00;;;;;;;;;;;5.20;99.90;;;;;;5055154;28;20003;-69
2021/03/15 10:29:26;;;;;;;;;;;5.10;99.90;;;;;;5068792;28;19996;-69
2021/03/15 10:31:52;;;;;;;;;;;5.10;99.90;;;;;;5070820;28;19912;-72
2021/03/15 10:34:21;;;;;;;;;;;5.10;99.90;;;;;;5055898;28;19924;-71
2021/03/15 10:36:46;;;;;;;;;;;5.20;99.90;;;;;;5056071;28;19958;-72
2021/03/15 10:39:12;;;;;;;;;;;5.20;99.90;;;;;;5055205;28;19905;-70
2021/03/15 10:41:41;;;;;;;;;;;5.20;99.90;;;;;;5056430;28;19991;-70
2021/03/15 10:44:07;;;;;;;;;;;5.20;99.90;;;;;;5056108;28;20346;-73
2021/03/15 10:46:44;;;;;;;;;;;5.20;99.90;;;;;;5055902;28;19912;-70
2021/03/15 10:49:21;;;;;;;;;;;5.10;99.90;;;;;;5055753;28;19943;-72
2021/03/15 10:51:50;;;;;;;;;;;5.10;99.90;;;;;;5055926;28;19958;-72
2021/03/15 10:54:26;;;;;;;;;;;5.10;99.90;;;;;;5056092;28;19920;-69
2021/03/15 10:57:10;;;;;;;;;;;5.00;99.90;;;;;;5056104;28;20339;-69
2021/03/15 10:59:36;;;;;;;;;;;5.00;99.90;;;;;;5058105;28;19905;-71
2021/03/15 11:02:02;;;;;;;;;;;5.00;99.90;;;;;;5055823;28;20310;-70
2021/03/15 11:04:33;;;;;;;;;;;5.00;99.90;;;;;;5055636;28;19912;-71
2021/03/15 11:06:59;;;;;;;;;;;5.00;99.90;;;;;;5055916;28;19904;-72
2021/03/15 11:09:25;;;;;;;;;;;5.00;99.90;;;;;;5040420;28;19911;-69
2021/03/15 11:11:54;;;;;;;;;;;5.00;99.90;;;;;;5054714;28;20347;-70
2021/03/15 11:14:20;;;;;;;;;;;5.00;99.90;;;;;;5053977;28;19917;-69
2021/03/15 11:16:45;;;;;;;;;;;5.10;99.90;;;;;;5054722;28;20346;-68
2021/03/15 11:19:12;;;;;;;;;;;5.10;99.90;;;;;;5055466;28;19912;-70
2021/03/15 11:21:39;;;;;;;;;;;5.00;99.90;;;;;;5054578;28;20278;-70
2021/03/15 11:24:06;;;;;;;;;;;5.00;99.90;;;;;;5057346;28;19919;-68
2021/03/15 11:26:50;;;;;;;;;;;5.00;99.90;;;;;;5057952;28;19909;-69
2021/03/15 11:29:16;;;;;;;;;;;4.90;99.90;;;;;;5059354;28;19905;-71
2021/03/15 11:31:48;;;;;;;;;;;5.00;99.90;;;;;;5069287;28;19904;-69
2021/03/15 11:34:22;;;;;;;;;;;5.00;99.90;;;;;;5059363;28;19916;-68
2021/03/15 11:36:48;;;;;;;;;;;5.00;99.90;;;;;;5050187;28;19916;-69
2021/03/15 11:39:15;;;;;;;;;;;5.00;99.90;;;;;;5063371;28;20366;-68
2021/03/15 11:41:41;;;;;;;;;;;5.00;99.90;;;;;;5055344;28;19929;-69
2021/03/15 11:44:07;;;;;;;;;;;5.00;99.90;;;;;;5056709;28;19939;-70
2021/03/15 11:46:33;;;;;;;;;;;5.00;99.90;;;;;;5038147;28;19935;-69
2021/03/15 11:48:58;;;;;;;;;;;5.10;99.90;;;;;;5036565;28;19908;-71
2021/03/15 11:51:24;;;;;;;;;;;5.10;99.90;;;;;;5054771;28;19905;-69
2021/03/15 11:53:50;;;;;;;;;;;5.10;99.90;;;;;;5064587;28;19908;-70
2021/03/15 11:56:16;;;;;;;;;;;5.10;99.90;;;;;;5054322;28;19904;-68
2021/03/15 11:58:41;;;;;;;;;;;5.10;99.90;;;;;;5066829;28;19965;-69
2021/03/15 12:01:07;;;;;;;;;;;5.00;99.90;;;;;;5056495;28;19915;-70
2021/03/15 12:03:33;;;;;;;;;;;5.10;99.90;;;;;;5054626;28;19905;-73
2021/03/15 12:05:59;;;;;;;;;;;5.10;99.90;;;;;;5036917;28;20003;-68
2021/03/15 12:08:26;;;;;;;;;;;5.10;99.90;;;;;;5054896;28;19911;-69
2021/03/15 12:10:52;;;;;;;;;;;5.20;99.90;;;;;;5054188;28;19908;-70
2021/03/15 12:13:18;;;;;;;;;;;5.20;99.90;;;;;;5054521;28;20343;-70
2021/03/15 12:15:43;;;;;;;;;;;5.10;99.90;;;;;;5053994;28;19924;-69
2021/03/15 12:18:09;;;;;;;;;;;5.10;99.90;;;;;;5036529;28;19995;-70
2021/03/15 12:20:35;;;;;;;;;;;5.20;99.90;;;;;;5054410;28;19990;-69
2021/03/15 12:23:01;;;;;;;;;;;5.20;99.90;;;;;;5053841;28;19905;-69
2021/03/15 12:25:27;;;;;;;;;;;5.20;99.90;;;;;;5054662;28;19915;-70
2021/03/15 12:27:53;;;;;;;;;;;5.20;99.90;;;;;;5054079;28;19905;-69
2021/03/15 12:30:19;;;;;;;;;;;5.30;99.90;;;;;;5038697;28;19944;-70
2021/03/15 12:32:45;;;;;;;;;;;5.20;99.90;;;;;;5066502;28;19962;-71
2021/03/15 12:35:11;;;;;;;;;;;5.30;99.90;;;;;;5057496;28;20336;-69
2021/03/15 12:37:36;;;;;;;;;;;5.30;99.90;;;;;;5051306;28;20313;-69
2021/03/15 12:40:03;;;;;;;;;;;5.30;99.90;;;;;;5047636;28;19992;-74
2021/03/15 12:42:28;;;;;;;;;;;5.30;99.90;;;;;;5066637;28;20397;-72
2021/03/15 12:44:54;;;;;;;;;;;5.40;99.90;;;;;;5052427;28;19905;-72
2021/03/15 12:47:20;;;;;;;;;;;5.40;99.90;;;;;;5034561;28;20267;-70
2021/03/15 12:49:47;;;;;;;;;;;5.40;99.90;;;;;;5052678;28;19912;-69
2021/03/15 12:52:12;;;;;;;;;;;5.30;99.90;;;;;;5034688;28;19971;-69
2021/03/15 12:54:38;;;;;;;;;;;5.30;99.90;;;;;;5052247;28;20295;-70
2021/03/15 12:57:04;;;;;;;;;;;5.30;99.90;;;;;;5052953;28;19909;-71
2021/03/15 12:59:30;;;;;;;;;;;5.40;99.90;;;;;;5052050;28;20360;-70
2021/03/15 13:01:55;;;;;;;;;;;5.40;99.90;;;;;;5052358;28;19904;-69
2021/03/15 13:04:21;;;;;;;;;;;5.40;99.90;;;;;;5052904;28;19905;-69
2021/03/15 13:06:47;;;;;;;;;;;5.50;99.90;;;;;;5052182;28;20331;-71
2021/03/15 13:09:12;;;;;;;;;;;5.50;99.90;;;;;;5059965;28;19991;-69
2021/03/15 13:11:38;;;;;;;;;;;5.50;99.90;;;;;;5034788;28;19908;-72
2021/03/15 13:14:04;;;;;;;;;;;5.50;99.90;;;;;;5056478;28;20269;-71
2021/03/15 13:16:30;;;;;;;;;;;5.50;99.90;;;;;;5047774;28;20398;-70
2021/03/15 13:18:55;;;;;;;;;;;5.40;99.90;;;;;;5052317;28;19992;-67
2021/03/15 13:21:21;;;;;;;;;;;5.50;99.90;;;;;;5055149;28;19905;-69
2021/03/15 13:23:46;;;;;;;;;;;5.40;99.90;;;;;;5052363;28;20281;-69
2021/03/15 13:26:12;;;;;;;;;;;5.40;99.90;;;;;;5052241;28;20014;-68
2021/03/15 13:28:38;;;;;;;;;;;5.50;99.90;;;;;;5034919;28;19938;-70
2021/03/15 13:31:04;;;;;;;;;;;5.40;99.90;;;;;;5054332;28;19940;-74
2021/03/15 13:33:30;;;;;;;;;;;5.40;99.90;;;;;;5051943;28;19912;-73
2021/03/15 13:35:55;;;;;;;;;;;5.30;99.90;;;;;;5034923;28;19913;-70
2021/03/15 13:38:21;;;;;;;;;;;5.40;99.90;;;;;;5051987;28;20335;-69
2021/03/15 13:40:47;;;;;;;;;;;5.40;99.90;;;;;;5051792;28;19955;-69
2021/03/15 13:43:13;;;;;;;;;;;5.40;99.90;;;;;;5051910;28;20280;-69
2021/03/15 13:45:38;;;;;;;;;;;5.40;99.90;;;;;;5052413;28;19916;-70
2021/03/15 13:48:05;;;;;;;;;;;5.40;99.90;;;;;;5034530;28;19939;-69
2021/03/15 13:50:30;;;;;;;;;;;5.40;99.90;;;;;;5052569;28;19959;-69
2021/03/15 13:52:56;;;;;;;;;;;5.40;99.90;;;;;;5034298;28;19909;-70
2021/03/15 13:55:22;;;;;;;;;;;5.40;99.90;;;;;;5051807;28;19920;-70
2021/03/15 13:57:47;;;;;;;;;;;5.50;99.90;;;;;;5055977;28;19911;-70
2021/03/15 14:00:13;;;;;;;;;;;5.50;99.90;;;;;;5055883;28;20404;-71
2021/03/15 14:02:39;;;;;;;;;;;5.50;99.90;;;;;;5055666;28;19916;-70
2021/03/15 14:05:04;;;;;;;;;;;5.50;99.90;;;;;;5062033;28;19912;-69
2021/03/15 14:07:30;;;;;;;;;;;5.50;99.90;;;;;;5065517;28;19908;-72
2021/03/15 14:09:56;;;;;;;;;;;5.60;99.90;;;;;;5059021;28;19916;-73
2021/03/15 14:12:21;;;;;;;;;;;5.50;99.90;;;;;;5069503;28;20259;-71
2021/03/15 14:14:47;;;;;;;;;;;5.50;99.90;;;;;;5063312;28;20007;-71
2021/03/15 14:17:13;;;;;;;;;;;5.50;99.90;;;;;;5042173;28;19952;-72
2021/03/15 14:19:38;;;;;;;;;;;5.50;99.90;;;;;;5062764;28;19958;-69
2021/03/15 14:22:04;;;;;;;;;;;5.50;99.90;;;;;;5057207;28;19909;-70
2021/03/15 14:24:30;;;;;;;;;;;5.50;99.90;;;;;;5058552;28;20372;-69
2021/03/15 14:26:55;;;;;;;;;;;5.50;99.90;;;;;;5055506;28;20342;-73
2021/03/15 14:29:21;;;;;;;;;;;5.50;99.90;;;;;;5060223;28;19991;-70
2021/03/15 14:31:46;;;;;;;;;;;5.50;99.90;;;;;;5067708;28;19911;-70
2021/03/15 14:34:12;;;;;;;;;;;5.50;99.90;;;;;;5055166;28;19920;-70